createdAt,value
2018-02-05T00:01:47.268Z,69.50
2018-02-05T00:04:14.477Z,69.60
2018-02-05T00:06:41.318Z,69.30
2018-02-05T00:09:07.561Z,69.60
2018-02-05T00:11:33.778Z,69.50
2018-02-05T00:14:00.027Z,69.80
2018-02-05T00:16:26.863Z,69.80
2018-02-05T00:18:54.081Z,69.70
2018-02-05T00:21:20.272Z,69.50
2018-02-05T00:23:46.477Z,69.70
2018-02-05T00:26:13.824Z,70.20
2018-02-05T00:28:41.871Z,70.40
2018-02-05T00:31:08.100Z,70.40
2018-02-05T00:33:34.694Z,71.00
2018-02-05T00:36:01.967Z,71.40
2018-02-05T00:38:29.331Z,71.80
2018-02-05T00:40:56.351Z,71.20
2018-02-05T00:43:22.957Z,71.20
2018-02-05T00:45:50.164Z,70.30
2018-02-05T00:48:17.246Z,70.10
2018-02-05T00:50:43.490Z,70.10
2018-02-05T00:53:09.706Z,69.80
2018-02-05T00:55:36.557Z,70.10
2018-02-05T00:58:03.756Z,70.00
2018-02-05T01:00:30.754Z,70.50
2018-02-05T01:02:57.883Z,70.40
2018-02-05T01:05:24.823Z,70.20
2018-02-05T01:07:53.078Z,71.60
2018-02-05T01:10:19.775Z,71.60
2018-02-05T01:12:46.622Z,71.20
2018-02-05T01:15:14.076Z,70.50
2018-02-05T01:17:41.058Z,70.50
2018-02-05T01:20:08.329Z,70.50
2018-02-05T01:22:34.547Z,70.30
2018-02-05T01:25:02.056Z,70.20
2018-02-05T01:27:28.315Z,70.80
2018-02-05T01:29:55.253Z,70.50
2018-02-05T01:32:22.760Z,70.50
2018-02-05T01:34:49.509Z,70.50
2018-02-05T01:37:15.857Z,70.70
2018-02-05T01:39:42.119Z,70.70
2018-02-05T01:42:09.904Z,70.30
2018-02-05T01:44:37.483Z,70.20
2018-02-05T01:47:05.074Z,70.10
2018-02-05T01:49:32.135Z,70.00
2018-02-05T01:51:59.719Z,70.00
2018-02-05T01:54:26.964Z,70.00
2018-02-05T01:56:53.728Z,69.90
2018-02-05T01:59:20.969Z,70.40
2018-02-05T02:01:47.262Z,70.10
2018-02-05T02:04:13.492Z,70.50
2018-02-05T02:06:39.949Z,70.20
2018-02-05T02:09:06.664Z,70.30
2018-02-05T02:11:33.882Z,70.50
2018-02-05T02:14:01.442Z,71.10
2018-02-05T02:16:27.909Z,71.00
2018-02-05T02:18:54.893Z,71.60
2018-02-05T02:21:21.194Z,71.60
2018-02-05T02:23:48.394Z,70.60
2018-02-05T02:26:15.414Z,70.60
2018-02-05T02:28:42.180Z,70.60
2018-02-05T02:31:10.512Z,70.30
2018-02-05T02:33:37.503Z,70.70
2018-02-05T02:36:04.388Z,70.70
2018-02-05T02:38:31.341Z,70.10
2018-02-05T02:40:58.420Z,70.20
2018-02-05T02:43:24.618Z,70.10
2018-02-05T02:45:52.589Z,70.10
2018-02-05T02:48:19.545Z,70.20
2018-02-05T02:50:45.794Z,70.10
2018-02-05T02:53:11.990Z,70.30
2018-02-05T02:55:39.260Z,70.40
2018-02-05T02:58:06.291Z,70.20
2018-02-05T03:00:33.263Z,69.80
2018-02-05T03:02:59.470Z,69.80
2018-02-05T03:05:25.754Z,69.90
2018-02-05T03:07:51.990Z,69.90
2018-02-05T03:10:18.254Z,69.80
2018-02-05T03:12:45.440Z,69.70
2018-02-05T03:15:12.448Z,69.60
2018-02-05T03:17:39.551Z,69.50
2018-02-05T03:20:05.758Z,69.50
2018-02-05T03:22:32.524Z,69.80
2018-02-05T03:24:59.517Z,70.00
2018-02-05T03:27:26.425Z,69.90
2018-02-05T03:29:52.642Z,69.90
2018-02-05T03:32:18.881Z,69.60
2018-02-05T03:34:46.051Z,69.70
2018-02-05T03:37:13.568Z,70.00
2018-02-05T03:39:41.346Z,70.30
2018-02-05T03:42:08.575Z,71.10
2018-02-05T03:44:36.114Z,71.90
2018-02-05T03:47:03.211Z,72.70
2018-02-05T03:49:29.410Z,72.60
2018-02-05T03:51:56.231Z,72.20
2018-02-05T03:54:22.779Z,72.70
2018-02-05T03:56:50.452Z,72.70
2018-02-05T03:59:16.894Z,72.60
2018-02-05T04:01:43.736Z,73.00
2018-02-05T04:04:10.145Z,74.00
2018-02-05T04:06:43.243Z,74.80
2018-02-05T04:09:09.823Z,74.80
2018-02-05T04:11:36.881Z,74.10
2018-02-05T04:14:04.398Z,73.20
2018-02-05T04:16:30.586Z,73.20
2018-02-05T04:18:57.759Z,73.30
2018-02-05T04:21:24.571Z,73.20
2018-02-05T04:23:51.363Z,72.60
2018-02-05T04:26:18.003Z,72.50
2018-02-05T04:28:45.383Z,72.40
2018-02-05T04:31:12.342Z,72.20
2018-02-05T04:33:38.716Z,72.10
2018-02-05T04:36:06.599Z,71.80
2018-02-05T04:38:33.393Z,71.80
2018-02-05T04:41:00.467Z,71.70
2018-02-05T04:43:26.638Z,71.40
2018-02-05T04:45:53.577Z,71.00
2018-02-05T04:48:20.679Z,71.10
2018-02-05T04:50:46.878Z,71.00
2018-02-05T04:53:14.447Z,70.90
2018-02-05T04:55:40.834Z,71.10
2018-02-05T04:58:07.624Z,71.30
2018-02-05T05:00:33.815Z,71.10
2018-02-05T05:03:00.777Z,71.40
2018-02-05T05:05:27.648Z,71.40
2018-02-05T05:07:54.465Z,71.40
2018-02-05T05:10:20.909Z,71.30
2018-02-05T05:12:47.167Z,71.40
2018-02-05T05:15:13.375Z,71.00
2018-02-05T05:17:40.388Z,70.90
2018-02-05T05:20:07.488Z,70.30
2018-02-05T05:22:33.744Z,70.30
2018-02-05T05:25:00.200Z,70.30
2018-02-05T05:27:27.781Z,70.60
2018-02-05T05:29:53.994Z,70.60
2018-02-05T05:32:20.190Z,70.20
2018-02-05T05:34:46.561Z,70.20
2018-02-05T05:37:13.068Z,71.10
2018-02-05T05:39:40.037Z,70.70
2018-02-05T05:42:06.306Z,70.60
2018-02-05T05:44:33.526Z,71.50
2018-02-05T05:46:59.747Z,71.40
2018-02-05T05:49:26.623Z,71.40
2018-02-05T05:51:53.019Z,71.20
2018-02-05T05:54:20.190Z,71.30
2018-02-05T05:56:46.378Z,71.00
2018-02-05T05:59:13.408Z,71.20
2018-02-05T06:01:40.185Z,71.00
2018-02-05T06:04:06.867Z,71.40
2018-02-05T06:06:34.346Z,70.90
2018-02-05T06:09:01.377Z,70.70
2018-02-05T06:11:27.590Z,70.70
2018-02-05T06:13:54.034Z,70.70
2018-02-05T06:16:20.290Z,70.50
2018-02-05T06:18:47.884Z,70.50
2018-02-05T06:21:14.580Z,70.50
2018-02-05T06:23:41.614Z,72.30
2018-02-05T06:26:08.389Z,72.20
2018-02-05T06:28:35.326Z,74.60
2018-02-05T06:31:02.837Z,75.20
2018-02-05T06:33:29.050Z,75.20
2018-02-05T06:35:55.281Z,76.00
2018-02-05T06:38:21.469Z,75.60
2018-02-05T06:40:48.431Z,75.10
2018-02-05T06:43:15.796Z,75.10
2018-02-05T06:45:43.288Z,75.20
2018-02-05T06:48:09.866Z,74.50
2018-02-05T06:50:49.057Z,74.30
2018-02-05T06:53:28.462Z,74.90
2018-02-05T06:56:07.016Z,74.80
2018-02-05T06:58:34.020Z,74.10
2018-02-05T07:01:00.239Z,74.10
2018-02-05T07:03:27.084Z,74.10
2018-02-05T07:05:53.330Z,74.10
2018-02-05T07:08:19.722Z,73.70
2018-02-05T07:10:47.008Z,73.30
2018-02-05T07:13:14.173Z,73.10
2018-02-05T07:15:41.919Z,72.90
2018-02-05T07:18:08.830Z,73.00
2018-02-05T07:20:36.039Z,73.10
2018-02-05T07:23:02.501Z,73.00
2018-02-05T07:25:30.154Z,74.70
2018-02-05T07:27:56.765Z,74.70
2018-02-05T07:30:23.811Z,74.80
2018-02-05T07:32:50.820Z,80.70
2018-02-05T07:35:17.072Z,80.70
2018-02-05T07:37:43.939Z,79.10
2018-02-05T07:40:12.162Z,76.60
2018-02-05T07:42:38.841Z,74.70
2018-02-05T07:45:06.312Z,74.40
2018-02-05T07:47:34.063Z,74.30
2018-02-05T07:50:01.542Z,74.20
2018-02-05T07:52:29.138Z,74.10
2018-02-05T07:54:56.007Z,74.10
2018-02-05T07:57:22.823Z,74.10
2018-02-05T07:59:49.045Z,74.10
2018-02-05T08:02:15.290Z,74.10
2018-02-05T08:04:41.942Z,74.00
2018-02-05T08:07:08.993Z,74.00
2018-02-05T08:09:35.884Z,73.90
2018-02-05T08:12:02.879Z,73.90
2018-02-05T08:14:29.114Z,73.90
2018-02-05T08:16:55.943Z,74.10
2018-02-05T08:19:23.220Z,74.20
2018-02-05T08:21:49.832Z,74.10
2018-02-05T08:24:16.501Z,75.20
2018-02-05T08:26:44.058Z,76.90
2018-02-05T08:29:10.244Z,76.80
2018-02-05T08:31:36.959Z,76.10
2018-02-05T08:34:04.459Z,73.60
2018-02-05T08:36:30.860Z,73.60
2018-02-05T08:38:58.859Z,75.00
2018-02-05T08:41:25.584Z,75.00
2018-02-05T08:43:52.356Z,74.00
2018-02-05T08:46:19.912Z,71.10
2018-02-05T08:48:46.358Z,71.10
2018-02-05T08:51:13.326Z,69.70
2018-02-05T08:53:40.309Z,68.70
2018-02-05T08:56:06.528Z,68.70
2018-02-05T08:58:33.015Z,68.10
2018-02-05T09:00:59.844Z,67.90
2018-02-05T09:03:26.070Z,67.80
2018-02-05T09:05:52.922Z,66.90
2018-02-05T09:08:19.640Z,65.10
2018-02-05T09:10:46.322Z,65.50
2018-02-05T09:13:13.266Z,64.60
2018-02-05T09:15:40.840Z,64.30
2018-02-05T09:18:08.307Z,64.80
2018-02-05T09:20:34.966Z,64.80
2018-02-05T09:23:01.175Z,62.50
2018-02-05T09:25:27.398Z,60.80
2018-02-05T09:27:54.283Z,63.30
2018-02-05T09:30:20.889Z,63.10
2018-02-05T09:32:47.935Z,59.20
2018-02-05T09:35:14.499Z,59.30
2018-02-05T09:37:41.515Z,59.20
2018-02-05T09:40:07.749Z,59.10
2018-02-05T09:42:33.986Z,58.70
2018-02-05T09:45:01.173Z,58.80
2018-02-05T09:47:27.405Z,60.80
2018-02-05T09:49:54.304Z,56.80
2018-02-05T09:52:21.480Z,57.30
2018-02-05T09:54:47.690Z,53.80
2018-02-05T09:57:14.563Z,54.60
2018-02-05T09:59:40.802Z,56.70
2018-02-05T10:02:08.350Z,54.20
2018-02-05T10:04:35.133Z,52.10
2018-02-05T10:07:01.366Z,54.60
2018-02-05T10:09:27.806Z,53.90
2018-02-05T10:11:54.741Z,53.00
2018-02-05T10:14:21.106Z,51.70
2018-02-05T10:16:48.120Z,50.20
2018-02-05T10:19:14.465Z,50.10
2018-02-05T10:21:41.225Z,50.60
2018-02-05T10:24:07.795Z,49.90
2018-02-05T10:26:35.284Z,51.30
2018-02-05T10:29:01.502Z,50.70
2018-02-05T10:31:28.447Z,51.60
2018-02-05T10:33:54.793Z,51.60
2018-02-05T10:36:22.278Z,52.20
2018-02-05T10:38:49.072Z,51.10
2018-02-05T10:41:16.007Z,46.40
2018-02-05T10:43:43.008Z,45.00
2018-02-05T10:46:09.288Z,44.90
2018-02-05T10:48:36.258Z,45.00
2018-02-05T10:51:02.624Z,45.00
2018-02-05T10:53:29.566Z,45.20
2018-02-05T10:55:55.951Z,45.20
2018-02-05T10:58:23.165Z,46.00
2018-02-05T11:00:49.401Z,46.00
2018-02-05T11:03:16.892Z,46.40
2018-02-05T11:05:43.112Z,46.60
2018-02-05T11:08:09.616Z,46.40
2018-02-05T11:10:35.937Z,45.80
2018-02-05T11:13:02.151Z,46.10
2018-02-05T11:15:28.428Z,43.80
2018-02-05T11:17:56.449Z,43.60
2018-02-05T11:20:23.592Z,44.60
2018-02-05T11:22:51.433Z,44.30
2018-02-05T11:25:18.299Z,44.30
2018-02-05T11:27:44.966Z,45.30
2018-02-05T11:30:11.561Z,44.90
2018-02-05T11:32:38.599Z,43.50
2018-02-05T11:37:38.589Z,41.90
2018-02-05T11:40:06.152Z,41.90
2018-02-05T11:42:33.827Z,42.40
2018-02-05T11:45:01.328Z,41.80
2018-02-05T11:47:28.539Z,41.70
2018-02-05T11:49:54.757Z,42.60
2018-02-05T11:52:21.704Z,43.00
2018-02-05T11:54:48.769Z,43.60
2018-02-05T11:57:15.599Z,43.50
2018-02-05T11:59:43.110Z,42.30
2018-02-05T12:02:09.310Z,43.80
2018-02-05T12:04:35.740Z,43.30
2018-02-05T12:07:02.836Z,41.80
2018-02-05T12:09:29.724Z,41.80
2018-02-05T12:11:56.168Z,43.10
2018-02-05T12:14:23.481Z,40.80
2018-02-05T12:16:50.453Z,40.20
2018-02-05T12:19:16.687Z,40.20
2018-02-05T12:21:42.919Z,39.20
2018-02-05T12:24:10.129Z,40.30
2018-02-05T12:26:38.067Z,38.90
2018-02-05T12:29:05.354Z,38.90
2018-02-05T12:31:32.508Z,40.10
2018-02-05T12:33:59.942Z,40.60
2018-02-05T12:36:26.910Z,39.80
2018-02-05T12:38:54.014Z,38.50
2018-02-05T12:41:21.018Z,39.90
2018-02-05T12:43:47.343Z,40.00
2018-02-05T12:46:14.162Z,38.60
2018-02-05T12:48:41.248Z,40.40
2018-02-05T12:51:08.570Z,40.40
2018-02-05T12:53:35.668Z,40.20
2018-02-05T12:56:01.890Z,40.20
2018-02-05T12:58:38.967Z,40.40
2018-02-05T13:01:15.634Z,40.40
2018-02-05T13:06:47.049Z,39.30
2018-02-05T13:09:13.699Z,40.00
2018-02-05T13:11:41.486Z,38.70
2018-02-05T13:14:07.792Z,38.60
2018-02-05T13:16:35.618Z,39.80
2018-02-05T13:19:02.801Z,40.00
2018-02-05T13:21:29.352Z,40.80
2018-02-05T13:23:57.312Z,40.50
2018-02-05T13:26:24.860Z,41.90
2018-02-05T13:28:51.314Z,41.90
2018-02-05T13:31:18.317Z,39.80
2018-02-05T13:33:44.928Z,39.80
2018-02-05T13:36:11.118Z,40.60
2018-02-05T13:38:39.120Z,40.60
2018-02-05T13:41:05.304Z,40.60
2018-02-05T13:43:31.504Z,41.20
2018-02-05T13:45:57.706Z,41.60
2018-02-05T13:48:24.147Z,41.30
2018-02-05T13:50:51.782Z,41.30
2018-02-05T13:53:19.395Z,41.30
2018-02-05T13:55:45.657Z,41.80
2018-02-05T13:58:12.715Z,40.40
2018-02-05T14:00:40.203Z,41.20
2018-02-05T14:03:07.210Z,40.80
2018-02-05T14:05:37.456Z,41.60
2018-02-05T14:08:04.473Z,41.30
2018-02-05T14:10:31.412Z,42.10
2018-02-05T14:12:57.939Z,42.10
2018-02-05T14:15:26.751Z,41.30
2018-02-05T14:17:53.717Z,41.10
2018-02-05T14:20:20.619Z,41.00
2018-02-05T14:22:47.351Z,41.90
2018-02-05T14:25:14.117Z,42.10
2018-02-05T14:27:41.858Z,42.20
2018-02-05T14:30:08.050Z,42.20
2018-02-05T14:32:34.850Z,41.70
2018-02-05T14:35:01.798Z,41.60
2018-02-05T14:37:29.279Z,41.80
2018-02-05T14:39:55.995Z,41.70
2018-02-05T14:42:22.973Z,41.50
2018-02-05T14:44:50.703Z,41.50
2018-02-05T14:47:17.854Z,42.00
2018-02-05T14:49:45.010Z,42.40
2018-02-05T14:52:11.464Z,42.40
2018-02-05T14:54:39.122Z,42.90
2018-02-05T14:57:05.407Z,42.30
2018-02-05T14:59:32.956Z,42.80
2018-02-05T15:01:59.180Z,42.80
2018-02-05T15:04:26.040Z,43.00
2018-02-05T15:06:53.582Z,43.50
2018-02-05T15:09:20.333Z,43.10
2018-02-05T15:11:46.540Z,42.70
2018-02-05T15:14:12.815Z,42.70
2018-02-05T15:16:39.018Z,42.80
2018-02-05T15:19:05.254Z,42.80
2018-02-05T15:21:32.165Z,43.30
2018-02-05T15:23:59.399Z,43.30
2018-02-05T15:26:27.392Z,43.00
2018-02-05T15:28:53.606Z,43.30
2018-02-05T15:31:20.522Z,44.00
2018-02-05T15:33:47.367Z,44.10
2018-02-05T15:36:14.987Z,44.70
2018-02-05T15:38:42.691Z,45.00
2018-02-05T15:41:09.441Z,45.00
2018-02-05T15:43:36.211Z,45.10
2018-02-05T15:46:02.908Z,45.20
2018-02-05T15:48:29.364Z,45.30
2018-02-05T15:50:55.562Z,45.60
2018-02-05T15:53:22.353Z,45.80
2018-02-05T15:55:48.861Z,45.70
2018-02-05T15:58:15.481Z,46.10
2018-02-05T16:00:42.286Z,46.60
2018-02-05T16:03:09.673Z,46.60
2018-02-05T16:05:37.237Z,47.00
2018-02-05T16:08:04.743Z,46.80
2018-02-05T16:10:31.872Z,46.80
2018-02-05T16:12:59.437Z,47.40
2018-02-05T16:15:26.180Z,47.10
2018-02-05T16:17:52.593Z,47.00
2018-02-05T16:20:19.464Z,47.30
2018-02-05T16:22:45.800Z,47.80
2018-02-05T16:25:11.969Z,48.30
2018-02-05T16:27:38.768Z,48.50
2018-02-05T16:30:05.858Z,48.60
2018-02-05T16:32:32.984Z,48.60
2018-02-05T16:35:00.126Z,48.90
2018-02-05T16:37:26.851Z,48.90
2018-02-05T16:39:53.275Z,49.10
2018-02-05T16:42:20.843Z,49.20
2018-02-05T16:44:47.045Z,49.20
2018-02-05T16:47:13.236Z,50.10
2018-02-05T16:49:39.818Z,50.10
2018-02-05T16:52:06.023Z,49.60
2018-02-05T16:54:32.792Z,49.80
2018-02-05T16:56:59.746Z,49.80
2018-02-05T16:59:26.584Z,49.80
2018-02-05T17:01:53.975Z,49.80
2018-02-05T17:04:20.190Z,49.70
2018-02-05T17:06:48.227Z,49.90
2018-02-05T17:09:14.857Z,49.90
2018-02-05T17:11:42.369Z,50.30
2018-02-05T17:14:09.561Z,50.20
2018-02-05T17:16:35.743Z,50.50
2018-02-05T17:19:01.950Z,50.50
2018-02-05T17:21:29.528Z,50.60
2018-02-05T17:23:56.698Z,50.60
2018-02-05T17:26:23.713Z,50.70
2018-02-05T17:28:50.856Z,50.80
2018-02-05T17:31:17.816Z,51.10
2018-02-05T17:33:44.405Z,51.10
2018-02-05T17:36:11.452Z,51.00
2018-02-05T17:38:37.863Z,50.90
2018-02-05T17:41:05.369Z,51.10
2018-02-05T17:43:32.885Z,51.10
2018-02-05T17:45:59.382Z,51.00
2018-02-05T17:48:26.544Z,50.90
2018-02-05T17:50:53.571Z,51.10
2018-02-05T17:55:54.219Z,51.40
2018-02-05T17:58:22.548Z,51.30
2018-02-05T18:00:49.993Z,51.80
2018-02-05T18:03:17.035Z,51.40
2018-02-05T18:05:43.990Z,51.30
2018-02-05T18:08:10.985Z,51.80
2018-02-05T18:10:38.151Z,51.20
2018-02-05T18:13:04.376Z,51.20
2018-02-05T18:15:30.803Z,51.10
2018-02-05T18:17:57.031Z,51.20
2018-02-05T18:20:24.433Z,51.20
2018-02-05T18:22:51.160Z,51.30
2018-02-05T18:25:18.244Z,51.50
2018-02-05T18:27:44.727Z,51.40
2018-02-05T18:30:10.995Z,51.60
2018-02-05T18:32:38.029Z,51.20
2018-02-05T18:35:05.254Z,51.30
2018-02-05T18:37:32.032Z,51.20
2018-02-05T18:39:58.836Z,51.30
2018-02-05T18:42:25.026Z,51.00
2018-02-05T18:44:52.674Z,51.20
2018-02-05T18:47:18.863Z,51.10
2018-02-05T18:49:45.792Z,51.00
2018-02-05T18:52:12.026Z,51.20
2018-02-05T18:54:38.214Z,51.20
2018-02-05T18:57:05.218Z,50.80
2018-02-05T18:59:32.042Z,50.80
2018-02-05T19:02:11.522Z,50.70
2018-02-05T19:04:38.517Z,50.80
2018-02-05T19:07:05.034Z,50.80
2018-02-05T19:09:31.972Z,50.70
2018-02-05T19:11:59.605Z,50.60
2018-02-05T19:14:25.830Z,50.60
2018-02-05T19:16:52.056Z,50.80
2018-02-05T19:19:18.963Z,50.50
2018-02-05T19:21:45.265Z,50.60
2018-02-05T19:24:12.213Z,51.00
2018-02-05T19:26:39.768Z,51.30
2018-02-05T19:29:08.035Z,52.30
2018-02-05T19:31:37.076Z,51.30
2018-02-05T19:34:03.742Z,51.30
2018-02-05T19:36:30.743Z,51.10
2018-02-05T19:38:57.359Z,51.10
2018-02-05T19:41:24.394Z,50.70
2018-02-05T19:43:52.084Z,50.60
2018-02-05T19:46:19.486Z,50.50
2018-02-05T19:48:46.615Z,51.20
2018-02-05T19:51:12.841Z,50.60
2018-02-05T19:53:40.453Z,51.00
2018-02-05T19:56:08.850Z,50.60
2018-02-05T19:58:35.046Z,50.50
2018-02-05T20:01:01.276Z,50.80
2018-02-05T20:03:28.896Z,50.70
2018-02-05T20:05:55.103Z,50.60
2018-02-05T20:08:21.416Z,50.90
2018-02-05T20:10:48.363Z,50.80
2018-02-05T20:13:14.916Z,50.80
2018-02-05T20:15:42.166Z,50.80
2018-02-05T20:18:08.738Z,50.80
2018-02-05T20:20:36.257Z,51.00
2018-02-05T20:23:02.817Z,51.00
2018-02-05T20:25:30.362Z,51.30
2018-02-05T20:27:58.044Z,51.30
2018-02-05T20:30:24.720Z,51.60
2018-02-05T20:32:53.320Z,51.50
2018-02-05T20:35:20.510Z,51.80
2018-02-05T20:37:48.161Z,51.70
2018-02-05T20:40:15.205Z,51.70
2018-02-05T20:42:41.590Z,51.70
2018-02-05T20:45:09.793Z,52.30
2018-02-05T20:47:37.874Z,52.40
2018-02-05T20:50:04.065Z,52.40
2018-02-05T20:52:31.172Z,52.50
2018-02-05T20:54:58.165Z,52.50
2018-02-05T20:57:25.519Z,52.70
2018-02-05T20:59:52.586Z,52.50
2018-02-05T21:02:19.193Z,52.50
2018-02-05T21:04:46.133Z,52.80
2018-02-05T21:07:12.357Z,52.70
2018-02-05T21:09:39.226Z,52.80
2018-02-05T21:12:06.439Z,52.90
2018-02-05T21:14:33.540Z,52.90
2018-02-05T21:17:02.025Z,52.70
2018-02-05T21:19:28.262Z,52.70
2018-02-05T21:21:55.158Z,52.60
2018-02-05T21:24:21.791Z,52.90
2018-02-05T21:26:48.592Z,52.30
2018-02-05T21:29:15.384Z,52.50
2018-02-05T21:31:42.356Z,52.50
2018-02-05T21:34:08.791Z,52.50
2018-02-05T21:36:36.762Z,52.30
2018-02-05T21:39:03.142Z,52.30
2018-02-05T21:41:29.358Z,52.30
2018-02-05T21:43:55.649Z,52.10
2018-02-05T21:46:22.533Z,51.70
2018-02-05T21:48:48.907Z,51.60
2018-02-05T21:51:16.612Z,51.70
2018-02-05T21:53:43.404Z,51.70
2018-02-05T21:56:10.448Z,51.60
2018-02-05T21:58:37.421Z,51.40
2018-02-05T22:01:03.650Z,51.40
2018-02-05T22:03:30.246Z,51.50
2018-02-05T22:05:57.227Z,51.40
2018-02-05T22:08:24.055Z,51.40
2018-02-05T22:10:50.286Z,51.60
2018-02-05T22:13:17.473Z,51.40
2018-02-05T22:15:43.645Z,51.10
2018-02-05T22:18:10.584Z,51.10
2018-02-05T22:20:37.257Z,51.00
2018-02-05T22:23:03.557Z,51.00
2018-02-05T22:25:30.600Z,50.90
2018-02-05T22:27:57.466Z,50.80
2018-02-05T22:30:23.703Z,50.90
2018-02-05T22:32:50.450Z,51.40
2018-02-05T22:35:16.678Z,51.10
2018-02-05T22:37:42.892Z,51.00
2018-02-05T22:40:09.092Z,50.90
2018-02-05T22:42:36.274Z,50.70
2018-02-05T22:45:03.921Z,50.80
2018-02-05T22:47:31.163Z,51.10
2018-02-05T22:49:59.441Z,51.20
2018-02-05T22:52:26.986Z,51.40
2018-02-05T22:54:54.252Z,51.30
2018-02-05T22:57:20.750Z,51.70
2018-02-05T22:59:46.936Z,51.30
2018-02-05T23:02:13.679Z,51.10
2018-02-05T23:04:40.265Z,51.30
2018-02-05T23:07:07.518Z,51.30
2018-02-05T23:09:34.802Z,51.20
2018-02-05T23:12:01.772Z,51.80
2018-02-05T23:14:28.614Z,51.30
2018-02-05T23:16:54.993Z,51.50
2018-02-05T23:19:22.921Z,51.10
2018-02-05T23:21:49.190Z,51.10
2018-02-05T23:24:15.953Z,51.00
2018-02-05T23:26:43.419Z,51.10
2018-02-05T23:29:09.938Z,51.10
2018-02-05T23:31:37.902Z,50.20
2018-02-05T23:34:04.861Z,50.30
2018-02-05T23:36:31.811Z,50.10
2018-02-05T23:38:58.709Z,50.10
2018-02-05T23:41:25.651Z,50.00
2018-02-05T23:43:52.183Z,50.00
2018-02-05T23:46:19.384Z,50.10
2018-02-05T23:48:46.408Z,51.00
2018-02-05T23:51:13.715Z,50.00
2018-02-05T23:53:41.856Z,49.70
2018-02-05T23:56:09.324Z,49.90
2018-02-05T23:58:35.521Z,49.90
